createdAt,value
2023-03-11T00:00:59.609Z,31.58
2023-03-11T00:03:29.131Z,32.78
2023-03-11T00:06:01.527Z,35.35
2023-03-11T00:08:30.624Z,38.08
2023-03-11T00:11:02.022Z,43.03
2023-03-11T00:13:32.067Z,43.47
2023-03-11T00:16:02.363Z,35.25
2023-03-11T00:18:32.184Z,34.03
2023-03-11T00:21:01.973Z,29.70
2023-03-11T00:23:32.319Z,26.20
2023-03-11T00:26:03.393Z,23.60
2023-03-11T00:28:34.366Z,77.95
2023-03-11T00:33:32.920Z,72.15
2023-03-11T00:36:02.036Z,57.03
2023-03-11T00:38:31.236Z,59.58
2023-03-11T00:41:01.789Z,59.50
2023-03-11T00:43:35.084Z,57.55
2023-03-11T00:46:05.134Z,59.22
2023-03-11T00:48:34.267Z,58.22
2023-03-11T00:51:03.633Z,54.40
2023-03-11T00:53:32.722Z,45.72
2023-03-11T00:56:08.242Z,44.10
2023-03-11T00:58:39.400Z,33.40
2023-03-11T01:01:14.007Z,29.27
2023-03-11T01:03:43.575Z,29.45
2023-03-11T01:06:16.466Z,20.98
2023-03-11T01:08:45.590Z,34.22
2023-03-11T01:11:14.685Z,28.77
2023-03-11T01:13:45.227Z,31.55
2023-03-11T01:16:14.396Z,26.08
2023-03-11T01:18:43.602Z,15.75
2023-03-11T01:21:12.762Z,13.00
2023-03-11T01:23:42.041Z,9.13
2023-03-11T01:26:14.577Z,7.15
2023-03-11T01:28:45.134Z,5.37
2023-03-11T01:31:14.339Z,6.65
2023-03-11T01:33:43.513Z,7.47
2023-03-11T01:36:14.285Z,8.20
2023-03-11T01:38:43.356Z,6.93
2023-03-11T01:41:12.772Z,6.03
2023-03-11T01:43:51.900Z,9.10
2023-03-11T01:46:26.094Z,4.15
2023-03-11T01:48:57.251Z,4.93
2023-03-11T01:51:31.489Z,8.10
2023-03-11T01:54:04.068Z,10.68
2023-03-11T01:56:34.133Z,5.10
2023-03-11T01:59:05.140Z,7.47
2023-03-11T02:01:36.484Z,4.13
2023-03-11T02:04:07.051Z,4.15
2023-03-11T02:06:36.611Z,6.35
2023-03-11T02:09:05.793Z,5.45
2023-03-11T02:11:35.508Z,2.65
2023-03-11T02:14:09.943Z,5.18
2023-03-11T02:16:39.724Z,6.75
2023-03-11T02:19:13.973Z,5.20
2023-03-11T02:21:48.976Z,3.95
2023-03-11T02:24:27.444Z,6.72
2023-03-11T02:26:59.544Z,4.63
2023-03-11T02:29:31.235Z,4.70
2023-03-11T02:32:06.224Z,7.63
2023-03-11T02:34:38.139Z,12.27
2023-03-11T02:37:09.986Z,8.10
2023-03-11T02:39:41.829Z,4.63
2023-03-11T02:42:19.668Z,5.18
2023-03-11T02:44:54.909Z,6.55
2023-03-11T02:47:24.197Z,8.90
2023-03-11T02:49:56.025Z,5.88
2023-03-11T02:54:57.073Z,4.70
2023-03-11T02:57:27.650Z,4.45
2023-03-11T02:59:56.793Z,5.35
2023-03-11T03:02:25.830Z,5.03
2023-03-11T03:04:55.601Z,4.50
2023-03-11T03:07:24.709Z,5.10
2023-03-11T03:09:53.790Z,3.25
2023-03-11T03:12:22.901Z,6.18
2023-03-11T03:14:53.412Z,6.85
2023-03-11T03:17:22.848Z,4.03
2023-03-11T03:19:51.890Z,4.85
2023-03-11T03:22:21.107Z,4.78
2023-03-11T03:24:50.772Z,5.40
2023-03-11T03:27:20.008Z,4.93
2023-03-11T03:29:49.422Z,8.02
2023-03-11T03:32:20.044Z,6.88
2023-03-11T03:34:49.207Z,3.15
2023-03-11T03:37:18.849Z,3.63
2023-03-11T03:39:48.973Z,9.93
2023-03-11T03:42:18.357Z,5.47
2023-03-11T03:44:48.398Z,2.30
2023-03-11T03:47:19.016Z,4.30
2023-03-11T03:52:18.240Z,6.18
2023-03-11T03:54:50.824Z,6.97
2023-03-11T03:57:20.006Z,4.40
2023-03-11T03:59:50.097Z,5.38
2023-03-11T04:02:20.584Z,5.45
2023-03-11T04:04:52.287Z,4.22
2023-03-11T04:09:50.338Z,6.05
2023-03-11T04:12:19.453Z,8.68
2023-03-11T04:14:49.098Z,5.13
2023-03-11T04:17:18.964Z,4.18
2023-03-11T04:19:50.226Z,5.78
2023-03-11T04:22:19.342Z,7.35
2023-03-11T04:24:48.509Z,5.63
2023-03-11T04:27:17.678Z,6.55
2023-03-11T04:29:47.322Z,6.75
2023-03-11T04:32:16.704Z,8.50
2023-03-11T04:34:46.472Z,7.45
2023-03-11T04:37:20.784Z,5.45
2023-03-11T04:39:53.421Z,6.22
2023-03-11T04:42:22.713Z,4.82
2023-03-11T04:44:52.237Z,6.82
2023-03-11T04:47:21.842Z,5.50
2023-03-11T04:49:51.081Z,2.90
2023-03-11T04:52:21.570Z,3.97
2023-03-11T04:54:50.775Z,5.93
2023-03-11T04:57:20.035Z,5.03
2023-03-11T04:59:49.748Z,3.58
2023-03-11T05:02:19.641Z,3.28
2023-03-11T05:04:55.837Z,5.30
2023-03-11T05:07:26.451Z,4.38
2023-03-11T05:09:55.866Z,5.47
2023-03-11T05:12:25.347Z,6.43
2023-03-11T05:14:56.038Z,7.10
2023-03-11T05:17:25.149Z,7.72
2023-03-11T05:19:55.918Z,4.85
2023-03-11T05:22:31.196Z,6.43
2023-03-11T05:25:00.327Z,6.15
2023-03-11T05:27:29.675Z,7.93
2023-03-11T05:29:59.575Z,6.18
2023-03-11T05:32:30.211Z,7.25
2023-03-11T05:34:59.309Z,9.15
2023-03-11T05:37:31.988Z,10.15
2023-03-11T05:40:05.870Z,6.32
2023-03-11T05:42:36.080Z,4.22
2023-03-11T05:45:06.388Z,5.53
2023-03-11T05:47:36.424Z,6.23
2023-03-11T05:50:07.520Z,6.55
2023-03-11T05:52:38.027Z,7.60
2023-03-11T05:55:09.939Z,5.65
2023-03-11T05:57:40.731Z,4.88
2023-03-11T06:00:15.534Z,7.50
2023-03-11T06:02:51.154Z,6.90
2023-03-11T06:05:39.407Z,6.13
2023-03-11T06:08:10.335Z,8.23
2023-03-11T06:10:39.976Z,8.55
2023-03-11T06:13:16.773Z,7.60
2023-03-11T06:15:51.263Z,7.15
2023-03-11T06:18:22.368Z,9.02
2023-03-11T06:20:51.675Z,6.80
2023-03-11T06:23:22.503Z,5.45
2023-03-11T06:25:57.665Z,6.22
2023-03-11T06:28:30.802Z,10.35
2023-03-11T06:31:08.791Z,8.18
2023-03-11T06:33:38.277Z,9.88
2023-03-11T06:36:08.627Z,7.28
2023-03-11T06:38:39.052Z,12.10
2023-03-11T06:41:10.857Z,5.45
2023-03-11T06:43:40.660Z,11.68
2023-03-11T06:46:11.489Z,12.23
2023-03-11T06:48:41.939Z,11.60
2023-03-11T06:51:11.921Z,10.18
2023-03-11T06:53:42.506Z,11.32
2023-03-11T06:56:15.186Z,8.63
2023-03-11T06:58:49.806Z,9.82
2023-03-11T07:01:21.497Z,11.63
2023-03-11T07:03:51.983Z,8.18
2023-03-11T07:08:55.548Z,9.73
2023-03-11T07:11:33.969Z,9.60
2023-03-11T07:14:10.870Z,7.80
2023-03-11T07:16:46.142Z,12.40
2023-03-11T07:19:30.676Z,11.77
2023-03-11T07:21:59.733Z,10.15
2023-03-11T07:24:30.178Z,10.35
2023-03-11T07:26:59.215Z,10.95
2023-03-11T07:29:28.256Z,10.48
2023-03-11T07:31:57.377Z,14.52
2023-03-11T07:34:26.693Z,15.13
2023-03-11T07:36:55.751Z,11.35
2023-03-11T07:39:25.164Z,13.60
2023-03-11T07:41:55.747Z,15.25
2023-03-11T07:44:31.367Z,14.13
2023-03-11T07:47:03.006Z,10.90
2023-03-11T07:49:32.303Z,10.63
2023-03-11T07:52:01.916Z,11.30
2023-03-11T07:54:31.143Z,9.98
2023-03-11T07:57:01.621Z,11.60
2023-03-11T07:59:30.683Z,10.48
2023-03-11T08:01:59.979Z,16.55
2023-03-11T08:04:28.978Z,15.13
2023-03-11T08:06:58.059Z,11.82
2023-03-11T08:09:27.133Z,10.20
2023-03-11T08:11:56.149Z,8.50
2023-03-11T08:14:26.602Z,11.90
2023-03-11T08:16:55.965Z,7.28
2023-03-11T08:19:24.995Z,14.70
2023-03-11T08:21:54.131Z,10.57
2023-03-11T08:24:23.321Z,10.13
2023-03-11T08:26:52.613Z,11.00
2023-03-11T08:29:21.811Z,11.95
2023-03-11T08:31:52.520Z,11.80
2023-03-11T08:34:22.503Z,11.27
2023-03-11T08:36:51.874Z,7.80
2023-03-11T08:39:20.928Z,8.57
2023-03-11T08:41:49.951Z,9.88
2023-03-11T08:44:18.980Z,8.15
2023-03-11T08:46:48.416Z,10.50
2023-03-11T08:49:20.296Z,10.20
2023-03-11T08:51:49.438Z,11.07
2023-03-11T08:54:18.507Z,14.98
2023-03-11T08:56:48.689Z,8.15
2023-03-11T08:59:17.752Z,14.27
2023-03-11T09:01:46.955Z,12.48
2023-03-11T09:04:18.194Z,10.77
2023-03-11T09:09:20.394Z,13.18
2023-03-11T09:11:50.063Z,12.15
2023-03-11T09:14:19.088Z,9.05
2023-03-11T09:16:48.203Z,15.15
2023-03-11T09:19:17.274Z,8.82
2023-03-11T09:21:46.553Z,15.05
2023-03-11T09:24:17.011Z,12.07
2023-03-11T09:26:46.074Z,11.52
2023-03-11T09:29:15.293Z,9.60
2023-03-11T09:31:44.563Z,14.68
2023-03-11T09:34:16.144Z,10.07
2023-03-11T09:36:45.811Z,10.43
2023-03-11T09:39:16.352Z,14.13
2023-03-11T09:41:58.304Z,13.35
2023-03-11T09:44:33.632Z,17.58
2023-03-11T09:47:26.256Z,14.18
2023-03-11T09:50:21.381Z,10.45
2023-03-11T09:53:02.272Z,17.90
2023-03-11T09:55:38.887Z,14.35
2023-03-11T09:58:19.149Z,13.60
2023-03-11T10:00:49.105Z,12.98
2023-03-11T10:03:33.009Z,13.88
2023-03-11T10:06:09.883Z,11.55
2023-03-11T10:08:45.139Z,18.77
2023-03-11T10:11:32.308Z,12.88
2023-03-11T10:14:11.368Z,16.25
2023-03-11T10:16:55.629Z,13.13
2023-03-11T10:19:36.639Z,9.07
2023-03-11T10:22:16.648Z,13.18
2023-03-11T10:24:58.865Z,13.38
2023-03-11T10:27:34.216Z,12.98
2023-03-11T10:30:11.137Z,11.75
2023-03-11T10:32:45.962Z,12.88
2023-03-11T10:35:20.249Z,11.43
2023-03-11T10:37:54.848Z,9.18
2023-03-11T10:40:29.505Z,12.05
2023-03-11T10:43:04.008Z,11.77
2023-03-11T10:45:38.720Z,11.55
2023-03-11T10:48:11.661Z,17.20
2023-03-11T10:50:48.531Z,14.52
2023-03-11T10:53:19.853Z,13.82
2023-03-11T10:55:51.210Z,12.23
2023-03-11T10:58:23.770Z,16.45
2023-03-11T11:01:04.048Z,75.85
2023-03-11T11:03:35.418Z,16.67
2023-03-11T11:06:07.196Z,18.63
2023-03-11T11:08:36.325Z,49.00
2023-03-11T11:11:05.842Z,15.90
2023-03-11T11:13:36.585Z,11.38
2023-03-11T11:16:19.044Z,11.07
2023-03-11T11:18:50.993Z,14.52
2023-03-11T11:21:32.533Z,12.10
2023-03-11T11:24:11.379Z,15.35
2023-03-11T11:26:40.488Z,9.82
2023-03-11T11:29:17.039Z,10.68
2023-03-11T11:31:47.530Z,13.50
2023-03-11T11:34:34.865Z,9.75
2023-03-11T11:37:06.414Z,10.60
2023-03-11T11:39:51.774Z,8.00
2023-03-11T11:42:22.396Z,6.30
2023-03-11T11:44:57.870Z,5.70
2023-03-11T11:47:31.511Z,7.63
2023-03-11T11:50:05.123Z,6.53
2023-03-11T11:52:38.333Z,8.80
2023-03-11T11:55:18.248Z,6.60
2023-03-11T11:57:47.468Z,4.65
2023-03-11T12:00:24.372Z,5.63
2023-03-11T12:03:11.152Z,14.60
2023-03-11T12:05:47.095Z,5.53
2023-03-11T12:08:22.625Z,3.03
2023-03-11T12:10:56.049Z,2.95
2023-03-11T12:13:49.420Z,3.90
2023-03-11T12:16:33.530Z,3.50
2023-03-11T12:19:11.408Z,4.45
2023-03-11T12:21:55.922Z,6.85
2023-03-11T12:24:45.201Z,4.65
2023-03-11T12:27:20.861Z,4.55
2023-03-11T12:29:53.302Z,3.97
2023-03-11T12:32:29.355Z,4.55
2023-03-11T12:35:04.719Z,4.60
2023-03-11T12:37:33.918Z,3.42
2023-03-11T12:40:38.349Z,4.35
2023-03-11T12:43:42.795Z,4.63
2023-03-11T12:46:13.175Z,3.50
2023-03-11T12:48:46.670Z,5.20
2023-03-11T12:52:01.249Z,5.18
2023-03-11T12:54:32.190Z,6.22
2023-03-11T12:57:02.675Z,7.00
2023-03-11T13:00:07.376Z,8.55
2023-03-11T13:03:02.233Z,15.23
2023-03-11T13:05:45.427Z,8.55
2023-03-11T13:08:17.096Z,7.95
2023-03-11T13:10:48.795Z,9.45
2023-03-11T13:13:32.618Z,9.40
2023-03-11T13:16:43.095Z,10.07
2023-03-11T13:19:38.894Z,10.57
2023-03-11T13:22:49.472Z,10.77
2023-03-11T13:25:34.859Z,9.65
2023-03-11T13:28:27.803Z,10.77
2023-03-11T13:31:06.481Z,11.43
2023-03-11T13:33:53.257Z,7.53
2023-03-11T13:36:45.392Z,9.68
2023-03-11T13:39:40.430Z,10.15
2023-03-11T13:42:27.814Z,7.72
2023-03-11T13:44:58.799Z,9.52
2023-03-11T13:47:30.162Z,9.13
2023-03-11T13:50:04.805Z,6.07
2023-03-11T13:52:36.749Z,7.15
2023-03-11T13:55:10.479Z,5.22
2023-03-11T13:57:39.922Z,6.03
2023-03-11T14:00:17.976Z,6.22
2023-03-11T14:02:51.131Z,11.48
2023-03-11T14:05:25.657Z,16.33
2023-03-11T14:07:55.069Z,32.70
2023-03-11T14:10:29.956Z,9.32
2023-03-11T14:13:16.370Z,9.88
2023-03-11T14:15:52.651Z,7.00
2023-03-11T14:18:37.953Z,6.72
2023-03-11T14:21:12.001Z,7.72
2023-03-11T14:23:44.364Z,7.68
2023-03-11T14:26:20.933Z,12.07
2023-03-11T14:28:53.485Z,16.52
2023-03-11T14:31:31.405Z,10.55
2023-03-11T14:34:06.865Z,6.20
2023-03-11T14:36:44.240Z,13.23
2023-03-11T14:39:30.737Z,6.88
2023-03-11T14:42:07.993Z,10.23
2023-03-11T14:44:42.173Z,8.25
2023-03-11T14:47:17.985Z,13.15
2023-03-11T14:49:48.365Z,16.80
2023-03-11T14:52:22.131Z,11.18
2023-03-11T14:54:53.524Z,12.40
2023-03-11T14:57:31.422Z,14.73
2023-03-11T15:00:00.809Z,14.52
2023-03-11T15:02:43.800Z,19.73
2023-03-11T15:05:19.713Z,15.48
2023-03-11T15:07:52.174Z,10.93
2023-03-11T15:10:21.382Z,28.95
2023-03-11T15:12:52.252Z,21.55
2023-03-11T15:15:27.421Z,16.35
2023-03-11T15:17:58.952Z,11.70
2023-03-11T15:20:31.500Z,10.18
2023-03-11T15:23:03.038Z,12.57
2023-03-11T15:25:34.734Z,12.68
2023-03-11T15:28:24.408Z,12.18
2023-03-11T15:31:15.165Z,9.50
2023-03-11T15:33:45.039Z,10.02
2023-03-11T15:36:31.423Z,10.60
2023-03-11T15:39:16.285Z,7.90
2023-03-11T15:41:47.225Z,6.85
2023-03-11T15:44:31.164Z,9.38
2023-03-11T15:47:00.990Z,8.27
2023-03-11T15:49:30.845Z,10.27
2023-03-11T15:52:00.653Z,7.72
2023-03-11T15:54:29.887Z,8.80
2023-03-11T15:57:01.859Z,11.18
2023-03-11T15:59:32.283Z,13.15
2023-03-11T16:02:01.362Z,15.45
2023-03-11T16:04:30.552Z,11.80
2023-03-11T16:07:07.820Z,7.28
2023-03-11T16:09:37.598Z,18.10
2023-03-11T16:12:15.248Z,12.70
2023-03-11T16:14:46.118Z,11.05
2023-03-11T16:17:16.049Z,15.35
2023-03-11T16:19:46.556Z,24.48
2023-03-11T16:22:19.775Z,11.70
2023-03-11T16:24:50.870Z,12.35
2023-03-11T16:27:20.489Z,10.82
2023-03-11T16:29:50.960Z,26.13
2023-03-11T16:32:19.959Z,86.28
2023-03-11T16:34:49.067Z,11.60
2023-03-11T16:37:21.470Z,27.15
2023-03-11T16:39:50.527Z,12.38
2023-03-11T16:42:24.336Z,26.27
2023-03-11T16:44:55.038Z,19.85
2023-03-11T16:47:24.139Z,17.45
2023-03-11T16:49:53.601Z,30.27
2023-03-11T16:52:23.601Z,19.30
2023-03-11T16:54:52.681Z,12.02
2023-03-11T16:57:21.953Z,33.30
2023-03-11T16:59:52.157Z,36.58
2023-03-11T17:02:24.534Z,15.50
2023-03-11T17:04:53.770Z,25.83
2023-03-11T17:07:24.252Z,24.00
2023-03-11T17:09:53.292Z,33.15
2023-03-11T17:12:23.184Z,24.67
2023-03-11T17:14:52.662Z,45.20
2023-03-11T17:17:23.888Z,31.70
2023-03-11T17:22:21.977Z,134.93
2023-03-11T17:24:51.181Z,95.60
2023-03-11T17:27:20.286Z,65.10
2023-03-11T17:29:49.322Z,46.65
2023-03-11T17:32:20.055Z,56.25
2023-03-11T17:34:50.693Z,59.58
2023-03-11T17:37:19.883Z,58.53
2023-03-11T17:39:49.086Z,48.03
2023-03-11T17:42:18.492Z,88.35
2023-03-11T17:44:51.658Z,40.85
2023-03-11T17:47:22.033Z,68.70
2023-03-11T17:49:52.755Z,41.67
2023-03-11T17:52:21.881Z,45.95
2023-03-11T17:54:52.097Z,30.67
2023-03-11T17:57:21.131Z,37.17
2023-03-11T17:59:52.675Z,84.07
2023-03-11T18:02:22.285Z,29.45
2023-03-11T18:04:53.996Z,54.13
2023-03-11T18:07:23.806Z,61.35
2023-03-11T18:09:53.786Z,80.65
2023-03-11T18:12:23.208Z,46.45
2023-03-11T18:14:52.238Z,42.80
2023-03-11T18:17:21.527Z,59.08
2023-03-11T18:19:50.580Z,51.92
2023-03-11T18:22:21.095Z,44.70
2023-03-11T18:24:50.153Z,38.00
2023-03-11T18:27:19.220Z,40.75
2023-03-11T18:29:48.234Z,46.00
2023-03-11T18:32:17.331Z,59.75
2023-03-11T18:34:46.421Z,57.28
2023-03-11T18:37:15.378Z,44.25
2023-03-11T18:39:45.832Z,60.25
2023-03-11T18:42:16.057Z,61.03
2023-03-11T18:44:45.273Z,74.33
2023-03-11T18:47:14.381Z,59.80
2023-03-11T18:49:43.637Z,56.38
2023-03-11T18:52:12.650Z,69.28
2023-03-11T18:54:41.724Z,73.40
2023-03-11T18:57:12.243Z,65.75
2023-03-11T18:59:41.332Z,28.88
2023-03-11T19:02:11.178Z,13.65
2023-03-11T19:04:40.609Z,14.82
2023-03-11T19:07:09.738Z,10.05
2023-03-11T19:09:38.828Z,15.32
2023-03-11T19:12:08.298Z,13.43
2023-03-11T19:14:38.764Z,13.68
2023-03-11T19:17:07.941Z,16.65
2023-03-11T19:19:37.308Z,23.10
2023-03-11T19:22:06.457Z,21.02
2023-03-11T19:24:38.561Z,17.88
2023-03-11T19:27:07.610Z,20.80
2023-03-11T19:29:38.244Z,23.15
2023-03-11T19:32:07.861Z,25.17
2023-03-11T19:34:37.083Z,26.45
2023-03-11T19:37:06.136Z,31.30
2023-03-11T19:39:35.209Z,36.22
2023-03-11T19:42:04.396Z,47.10
2023-03-11T19:44:33.481Z,36.65
2023-03-11T19:47:03.955Z,51.08
2023-03-11T19:49:33.301Z,50.47
2023-03-11T19:52:02.519Z,84.90
2023-03-11T19:54:31.615Z,131.50
2023-03-11T19:57:00.869Z,101.32
2023-03-11T19:59:30.189Z,113.70
2023-03-11T20:01:59.416Z,72.88
2023-03-11T20:04:30.537Z,79.05
2023-03-11T20:09:29.404Z,71.25
2023-03-11T20:12:01.293Z,63.30
2023-03-11T20:14:30.422Z,82.68
2023-03-11T20:16:59.724Z,60.22
2023-03-11T20:19:30.459Z,53.78
2023-03-11T20:21:59.633Z,45.20
2023-03-11T20:24:28.958Z,47.88
2023-03-11T20:26:57.942Z,45.55
2023-03-11T20:29:27.027Z,45.88
2023-03-11T20:31:56.187Z,37.83
2023-03-11T20:34:25.571Z,45.92
2023-03-11T20:36:56.033Z,42.20
2023-03-11T20:39:25.333Z,43.07
2023-03-11T20:41:54.472Z,34.30
2023-03-11T20:44:23.724Z,37.42
2023-03-11T20:46:54.886Z,50.22
2023-03-11T20:49:24.214Z,45.25
2023-03-11T20:51:53.383Z,39.72
2023-03-11T20:54:23.945Z,58.08
2023-03-11T20:56:53.092Z,40.50
2023-03-11T20:59:22.185Z,34.47
2023-03-11T21:01:51.411Z,28.75
2023-03-11T21:04:21.405Z,21.73
2023-03-11T21:06:52.238Z,26.20
2023-03-11T21:09:21.326Z,33.83
2023-03-11T21:11:52.052Z,20.73
2023-03-11T21:14:22.030Z,34.58
2023-03-11T21:16:51.594Z,35.08
2023-03-11T21:19:22.448Z,31.88
2023-03-11T21:21:51.743Z,47.65
2023-03-11T21:24:20.993Z,36.85
2023-03-11T21:26:51.598Z,42.22
2023-03-11T21:29:22.139Z,40.95
2023-03-11T21:31:51.325Z,37.42
2023-03-11T21:34:20.422Z,33.78
2023-03-11T21:36:50.024Z,22.25
2023-03-11T21:39:20.610Z,25.85
2023-03-11T21:41:53.352Z,27.38
2023-03-11T21:44:22.544Z,21.08
2023-03-11T21:46:51.713Z,17.63
2023-03-11T21:49:21.020Z,20.20
2023-03-11T21:51:50.170Z,18.58
2023-03-11T21:54:19.260Z,25.13
2023-03-11T21:56:48.387Z,16.70
2023-03-11T21:59:18.895Z,17.00
2023-03-11T22:01:48.051Z,18.38
2023-03-11T22:04:17.273Z,26.38
2023-03-11T22:06:46.486Z,24.90
2023-03-11T22:09:15.708Z,26.52
2023-03-11T22:11:44.947Z,23.45
2023-03-11T22:14:14.074Z,28.65
2023-03-11T22:16:44.584Z,25.95
2023-03-11T22:19:14.034Z,26.95
2023-03-11T22:21:43.233Z,35.17
2023-03-11T22:24:12.361Z,27.33
2023-03-11T22:26:41.472Z,28.50
2023-03-11T22:29:13.354Z,23.33
2023-03-11T22:31:44.125Z,33.22
2023-03-11T22:34:13.164Z,24.45
2023-03-11T22:36:42.289Z,30.92
2023-03-11T22:39:11.284Z,20.55
2023-03-11T22:41:40.338Z,17.25
2023-03-11T22:44:09.448Z,16.13
2023-03-11T22:46:38.454Z,12.77
2023-03-11T22:49:09.017Z,26.98
2023-03-11T22:51:38.117Z,29.07
2023-03-11T22:54:07.312Z,30.77
2023-03-11T22:56:36.696Z,36.90
2023-03-11T22:59:05.905Z,40.40
2023-03-11T23:01:34.966Z,35.30
2023-03-11T23:04:04.183Z,40.60
2023-03-11T23:06:34.700Z,58.05
2023-03-11T23:09:04.506Z,54.50
2023-03-11T23:11:33.570Z,44.50
2023-03-11T23:14:02.822Z,45.67
2023-03-11T23:16:32.244Z,60.53
2023-03-11T23:19:01.386Z,54.33
2023-03-11T23:21:32.783Z,44.05
2023-03-11T23:24:06.051Z,45.60
2023-03-11T23:26:36.351Z,44.35
2023-03-11T23:29:10.147Z,51.58
2023-03-11T23:31:39.235Z,51.80
2023-03-11T23:34:08.435Z,46.60
2023-03-11T23:36:37.703Z,42.75
2023-03-11T23:39:08.187Z,42.08
2023-03-11T23:41:38.084Z,35.40
2023-03-11T23:44:07.218Z,29.85
2023-03-11T23:46:36.297Z,43.80
2023-03-11T23:49:05.393Z,33.95
2023-03-11T23:51:34.454Z,44.08
2023-03-11T23:54:03.638Z,49.33
2023-03-11T23:56:35.289Z,44.65
2023-03-11T23:59:05.136Z,37.25
